sensor_id;sensor_type;location;lat;lon;timestamp;P1;durP1;ratioP1;P2;durP2;ratioP2
73421;SDS011;61637;47.760;-122.022;2023-02-28T00:00:01;2.3;;;0.7;;
73421;SDS011;61637;47.760;-122.022;2023-02-28T00:02:01;1.4;;;0.6;;
73421;SDS011;61637;47.760;-122.022;2023-02-28T00:04:02;1.5;;;0.6;;
73421;SDS011;61637;47.760;-122.022;2023-02-28T00:06:02;2.4;;;0.6;;
73421;SDS011;61637;47.760;-122.022;2023-02-28T00:08:02;1.9;;;0.6;;
73421;SDS011;61637;47.760;-122.022;2023-02-28T00:10:01;1.9;;;0.6;;
73421;SDS011;61637;47.760;-122.022;2023-02-28T00:12:01;2.8;;;0.8;;
73421;SDS011;61637;47.760;-122.022;2023-02-28T00:14:01;2.1;;;0.7;;
73421;SDS011;61637;47.760;-122.022;2023-02-28T00:16:03;2.2;;;0.6;;
73421;SDS011;61637;47.760;-122.022;2023-02-28T00:18:01;2.4;;;0.7;;
73421;SDS011;61637;47.760;-122.022;2023-02-28T00:20:02;2.2;;;0.6;;
73421;SDS011;61637;47.760;-122.022;2023-02-28T00:22:01;2.6;;;0.7;;
73421;SDS011;61637;47.760;-122.022;2023-02-28T00:24:01;2.2;;;0.7;;
73421;SDS011;61637;47.760;-122.022;2023-02-28T00:26:02;1.6;;;0.6;;
73421;SDS011;61637;47.760;-122.022;2023-02-28T00:28:01;2.0;;;0.6;;
73421;SDS011;61637;47.760;-122.022;2023-02-28T00:30:02;2.1;;;0.7;;
73421;SDS011;61637;47.760;-122.022;2023-02-28T00:32:01;1.5;;;0.6;;
73421;SDS011;61637;47.760;-122.022;2023-02-28T00:34:01;2.4;;;0.5;;
73421;SDS011;61637;47.760;-122.022;2023-02-28T00:36:03;2.8;;;0.6;;
73421;SDS011;61637;47.760;-122.022;2023-02-28T00:38:02;1.3;;;0.5;;
73421;SDS011;61637;47.760;-122.022;2023-02-28T00:40:02;1.9;;;0.6;;
73421;SDS011;61637;47.760;-122.022;2023-02-28T00:42:02;2.6;;;0.6;;
73421;SDS011;61637;47.760;-122.022;2023-02-28T00:44:01;1.5;;;0.5;;
73421;SDS011;61637;47.760;-122.022;2023-02-28T00:46:02;2.0;;;0.5;;
73421;SDS011;61637;47.760;-122.022;2023-02-28T00:48:01;3.8;;;0.6;;
73421;SDS011;61637;47.760;-122.022;2023-02-28T00:50:02;1.6;;;0.5;;
73421;SDS011;61637;47.760;-122.022;2023-02-28T00:52:02;1.5;;;0.5;;
73421;SDS011;61637;47.760;-122.022;2023-02-28T00:54:01;2.0;;;0.6;;
73421;SDS011;61637;47.760;-122.022;2023-02-28T00:56:02;2.5;;;0.6;;
73421;SDS011;61637;47.760;-122.022;2023-02-28T00:58:01;1.5;;;0.5;;
73421;SDS011;61637;47.760;-122.022;2023-02-28T01:00:01;1.9;;;0.6;;
73421;SDS011;61637;47.760;-122.022;2023-02-28T01:02:01;1.3;;;0.5;;
73421;SDS011;61637;47.760;-122.022;2023-02-28T01:04:01;3.4;;;0.6;;
73421;SDS011;61637;47.760;-122.022;2023-02-28T01:06:01;1.5;;;0.6;;
73421;SDS011;61637;47.760;-122.022;2023-02-28T01:08:01;2.4;;;0.6;;
73421;SDS011;61637;47.760;-122.022;2023-02-28T01:10:01;1.9;;;0.6;;
73421;SDS011;61637;47.760;-122.022;2023-02-28T01:12:01;1.8;;;0.7;;
73421;SDS011;61637;47.760;-122.022;2023-02-28T01:14:02;4.0;;;1.0;;
73421;SDS011;61637;47.760;-122.022;2023-02-28T01:16:01;4.8;;;1.5;;
73421;SDS011;61637;47.760;-122.022;2023-02-28T01:18:01;5.4;;;1.7;;
73421;SDS011;61637;47.760;-122.022;2023-02-28T01:20:01;7.5;;;3.0;;
73421;SDS011;61637;47.760;-122.022;2023-02-28T01:22:03;9.5;;;5.2;;
73421;SDS011;61637;47.760;-122.022;2023-02-28T01:24:01;7.2;;;4.8;;
73421;SDS011;61637;47.760;-122.022;2023-02-28T01:26:04;8.5;;;6.4;;
73421;SDS011;61637;47.760;-122.022;2023-02-28T01:28:01;5.7;;;3.9;;
73421;SDS011;61637;47.760;-122.022;2023-02-28T01:30:01;4.3;;;1.7;;
73421;SDS011;61637;47.760;-122.022;2023-02-28T01:32:01;4.8;;;2.1;;
73421;SDS011;61637;47.760;-122.022;2023-02-28T01:34:02;3.7;;;1.8;;
73421;SDS011;61637;47.760;-122.022;2023-02-28T01:36:04;5.0;;;1.4;;
73421;SDS011;61637;47.760;-122.022;2023-02-28T01:38:01;3.3;;;1.2;;
73421;SDS011;61637;47.760;-122.022;2023-02-28T01:40:02;3.8;;;1.4;;
73421;SDS011;61637;47.760;-122.022;2023-02-28T01:42:01;4.7;;;1.4;;
73421;SDS011;61637;47.760;-122.022;2023-02-28T01:44:04;5.0;;;3.0;;
73421;SDS011;61637;47.760;-122.022;2023-02-28T01:46:01;6.7;;;5.3;;
73421;SDS011;61637;47.760;-122.022;2023-02-28T01:48:05;5.9;;;3.5;;
73421;SDS011;61637;47.760;-122.022;2023-02-28T01:50:05;4.3;;;2.1;;
73421;SDS011;61637;47.760;-122.022;2023-02-28T01:52:02;4.2;;;1.6;;
73421;SDS011;61637;47.760;-122.022;2023-02-28T01:54:04;5.1;;;2.8;;
73421;SDS011;61637;47.760;-122.022;2023-02-28T01:56:06;4.8;;;2.8;;
73421;SDS011;61637;47.760;-122.022;2023-02-28T01:58:04;4.6;;;2.8;;
73421;SDS011;61637;47.760;-122.022;2023-02-28T02:00:06;6.2;;;3.4;;
73421;SDS011;61637;47.760;-122.022;2023-02-28T02:02:01;5.2;;;3.5;;
73421;SDS011;61637;47.760;-122.022;2023-02-28T02:04:02;6.1;;;4.2;;
73421;SDS011;61637;47.760;-122.022;2023-02-28T02:06:02;7.8;;;7.0;;
73421;SDS011;61637;47.760;-122.022;2023-02-28T02:08:05;10.8;;;9.8;;
73421;SDS011;61637;47.760;-122.022;2023-02-28T02:10:04;8.4;;;7.3;;
73421;SDS011;61637;47.760;-122.022;2023-02-28T02:12:06;7.0;;;6.1;;
73421;SDS011;61637;47.760;-122.022;2023-02-28T02:14:14;6.3;;;4.7;;
73421;SDS011;61637;47.760;-122.022;2023-02-28T02:16:08;7.9;;;4.9;;
73421;SDS011;61637;47.760;-122.022;2023-02-28T02:18:04;8.1;;;6.5;;
73421;SDS011;61637;47.760;-122.022;2023-02-28T02:22:15;10.8;;;9.9;;
73421;SDS011;61637;47.760;-122.022;2023-02-28T02:24:17;11.7;;;10.7;;
73421;SDS011;61637;47.760;-122.022;2023-02-28T02:26:16;12.2;;;11.2;;
73421;SDS011;61637;47.760;-122.022;2023-02-28T02:32:17;14.3;;;13.1;;
73421;SDS011;61637;47.760;-122.022;2023-02-28T02:34:10;13.5;;;12.2;;
73421;SDS011;61637;47.760;-122.022;2023-02-28T02:36:03;14.1;;;12.8;;
73421;SDS011;61637;47.760;-122.022;2023-02-28T02:38:08;12.8;;;11.7;;
73421;SDS011;61637;47.760;-122.022;2023-02-28T02:40:11;13.8;;;12.6;;
73421;SDS011;61637;47.760;-122.022;2023-02-28T02:42:06;13.7;;;12.5;;
73421;SDS011;61637;47.760;-122.022;2023-02-28T02:44:10;14.3;;;13.0;;
73421;SDS011;61637;47.760;-122.022;2023-02-28T02:46:07;14.7;;;13.3;;
73421;SDS011;61637;47.760;-122.022;2023-02-28T02:48:04;14.7;;;13.3;;
73421;SDS011;61637;47.760;-122.022;2023-02-28T02:50:04;14.2;;;12.8;;
73421;SDS011;61637;47.760;-122.022;2023-02-28T02:52:04;15.2;;;13.7;;
73421;SDS011;61637;47.760;-122.022;2023-02-28T02:54:05;15.5;;;14.1;;
73421;SDS011;61637;47.760;-122.022;2023-02-28T02:56:03;15.1;;;13.7;;
73421;SDS011;61637;47.760;-122.022;2023-02-28T02:58:04;16.4;;;14.9;;
73421;SDS011;61637;47.760;-122.022;2023-02-28T03:00:02;14.8;;;13.4;;
73421;SDS011;61637;47.760;-122.022;2023-02-28T03:02:04;14.1;;;12.8;;
73421;SDS011;61637;47.760;-122.022;2023-02-28T03:04:06;14.3;;;13.0;;
73421;SDS011;61637;47.760;-122.022;2023-02-28T03:06:02;13.7;;;12.4;;
73421;SDS011;61637;47.760;-122.022;2023-02-28T03:08:04;14.6;;;13.3;;
73421;SDS011;61637;47.760;-122.022;2023-02-28T03:10:01;13.5;;;12.3;;
73421;SDS011;61637;47.760;-122.022;2023-02-28T03:12:02;13.4;;;12.2;;
73421;SDS011;61637;47.760;-122.022;2023-02-28T03:14:15;14.0;;;12.8;;
73421;SDS011;61637;47.760;-122.022;2023-02-28T03:18:06;13.1;;;12.0;;
73421;SDS011;61637;47.760;-122.022;2023-02-28T03:20:07;13.1;;;12.0;;
73421;SDS011;61637;47.760;-122.022;2023-02-28T03:22:08;12.9;;;11.7;;
73421;SDS011;61637;47.760;-122.022;2023-02-28T03:24:04;12.1;;;10.9;;
73421;SDS011;61637;47.760;-122.022;2023-02-28T03:26:06;12.7;;;11.7;;
73421;SDS011;61637;47.760;-122.022;2023-02-28T03:28:07;13.3;;;12.2;;
73421;SDS011;61637;47.760;-122.022;2023-02-28T03:30:05;13.2;;;12.1;;
73421;SDS011;61637;47.760;-122.022;2023-02-28T03:32:05;13.8;;;12.6;;
73421;SDS011;61637;47.760;-122.022;2023-02-28T03:34:05;13.4;;;12.3;;
73421;SDS011;61637;47.760;-122.022;2023-02-28T03:36:05;12.6;;;11.5;;
73421;SDS011;61637;47.760;-122.022;2023-02-28T03:38:05;13.2;;;12.1;;
73421;SDS011;61637;47.760;-122.022;2023-02-28T03:40:05;12.8;;;11.7;;
73421;SDS011;61637;47.760;-122.022;2023-02-28T03:42:05;12.2;;;11.2;;
73421;SDS011;61637;47.760;-122.022;2023-02-28T03:44:06;12.1;;;11.1;;
73421;SDS011;61637;47.760;-122.022;2023-02-28T03:46:05;11.9;;;10.8;;
73421;SDS011;61637;47.760;-122.022;2023-02-28T03:48:06;12.9;;;11.8;;
73421;SDS011;61637;47.760;-122.022;2023-02-28T03:50:05;12.3;;;11.3;;
73421;SDS011;61637;47.760;-122.022;2023-02-28T03:52:03;13.2;;;12.1;;
73421;SDS011;61637;47.760;-122.022;2023-02-28T03:54:07;12.4;;;11.1;;
73421;SDS011;61637;47.760;-122.022;2023-02-28T03:56:06;14.7;;;13.5;;
73421;SDS011;61637;47.760;-122.022;2023-02-28T03:58:07;12.7;;;11.6;;
73421;SDS011;61637;47.760;-122.022;2023-02-28T04:00:06;13.1;;;11.9;;
73421;SDS011;61637;47.760;-122.022;2023-02-28T04:02:01;13.6;;;12.5;;
73421;SDS011;61637;47.760;-122.022;2023-02-28T04:04:02;14.2;;;13.0;;
73421;SDS011;61637;47.760;-122.022;2023-02-28T04:06:02;12.2;;;11.2;;
73421;SDS011;61637;47.760;-122.022;2023-02-28T04:08:05;12.1;;;11.1;;
73421;SDS011;61637;47.760;-122.022;2023-02-28T04:10:01;12.6;;;11.5;;
73421;SDS011;61637;47.760;-122.022;2023-02-28T04:12:01;13.0;;;11.9;;
73421;SDS011;61637;47.760;-122.022;2023-02-28T04:14:01;11.4;;;10.4;;
73421;SDS011;61637;47.760;-122.022;2023-02-28T04:16:01;11.1;;;10.1;;
73421;SDS011;61637;47.760;-122.022;2023-02-28T04:18:01;12.4;;;11.3;;
73421;SDS011;61637;47.760;-122.022;2023-02-28T04:20:01;11.8;;;10.8;;
73421;SDS011;61637;47.760;-122.022;2023-02-28T04:22:01;13.4;;;12.3;;
73421;SDS011;61637;47.760;-122.022;2023-02-28T04:24:02;12.8;;;11.7;;
73421;SDS011;61637;47.760;-122.022;2023-02-28T04:26:02;13.1;;;12.0;;
73421;SDS011;61637;47.760;-122.022;2023-02-28T04:28:01;13.5;;;12.4;;
73421;SDS011;61637;47.760;-122.022;2023-02-28T04:30:01;13.4;;;12.3;;
73421;SDS011;61637;47.760;-122.022;2023-02-28T04:32:02;12.4;;;11.3;;
73421;SDS011;61637;47.760;-122.022;2023-02-28T04:34:02;13.1;;;12.0;;
73421;SDS011;61637;47.760;-122.022;2023-02-28T04:36:03;13.9;;;12.8;;
73421;SDS011;61637;47.760;-122.022;2023-02-28T04:38:01;13.2;;;12.1;;
73421;SDS011;61637;47.760;-122.022;2023-02-28T04:40:01;13.1;;;11.9;;
73421;SDS011;61637;47.760;-122.022;2023-02-28T04:42:01;12.9;;;11.8;;
73421;SDS011;61637;47.760;-122.022;2023-02-28T04:44:01;14.0;;;12.9;;
73421;SDS011;61637;47.760;-122.022;2023-02-28T04:46:04;12.9;;;11.8;;
73421;SDS011;61637;47.760;-122.022;2023-02-28T04:48:01;13.4;;;12.2;;
73421;SDS011;61637;47.760;-122.022;2023-02-28T04:50:01;13.1;;;12.0;;
73421;SDS011;61637;47.760;-122.022;2023-02-28T04:52:01;12.5;;;11.4;;
73421;SDS011;61637;47.760;-122.022;2023-02-28T04:54:01;13.2;;;12.1;;
73421;SDS011;61637;47.760;-122.022;2023-02-28T04:56:01;13.3;;;12.2;;
73421;SDS011;61637;47.760;-122.022;2023-02-28T04:58:01;12.9;;;11.7;;
73421;SDS011;61637;47.760;-122.022;2023-02-28T05:00:01;12.5;;;11.4;;
73421;SDS011;61637;47.760;-122.022;2023-02-28T05:02:02;13.3;;;12.2;;
73421;SDS011;61637;47.760;-122.022;2023-02-28T05:04:02;12.5;;;11.4;;
73421;SDS011;61637;47.760;-122.022;2023-02-28T05:06:01;13.9;;;12.7;;
73421;SDS011;61637;47.760;-122.022;2023-02-28T05:08:01;13.6;;;12.4;;
73421;SDS011;61637;47.760;-122.022;2023-02-28T05:10:01;12.2;;;11.2;;
73421;SDS011;61637;47.760;-122.022;2023-02-28T05:12:01;13.3;;;12.2;;
73421;SDS011;61637;47.760;-122.022;2023-02-28T05:14:02;13.0;;;11.9;;
73421;SDS011;61637;47.760;-122.022;2023-02-28T05:16:01;14.0;;;12.9;;
73421;SDS011;61637;47.760;-122.022;2023-02-28T05:18:01;12.4;;;11.3;;
73421;SDS011;61637;47.760;-122.022;2023-02-28T05:20:01;14.1;;;12.9;;
73421;SDS011;61637;47.760;-122.022;2023-02-28T05:22:01;12.9;;;11.9;;
73421;SDS011;61637;47.760;-122.022;2023-02-28T05:24:02;13.6;;;12.4;;
73421;SDS011;61637;47.760;-122.022;2023-02-28T05:26:01;13.1;;;11.9;;
73421;SDS011;61637;47.760;-122.022;2023-02-28T05:28:01;13.5;;;12.4;;
73421;SDS011;61637;47.760;-122.022;2023-02-28T05:30:02;13.8;;;12.7;;
73421;SDS011;61637;47.760;-122.022;2023-02-28T05:32:01;14.4;;;13.2;;
73421;SDS011;61637;47.760;-122.022;2023-02-28T05:34:02;14.4;;;13.2;;
73421;SDS011;61637;47.760;-122.022;2023-02-28T05:36:01;13.9;;;12.8;;
73421;SDS011;61637;47.760;-122.022;2023-02-28T05:38:02;14.2;;;13.1;;
73421;SDS011;61637;47.760;-122.022;2023-02-28T05:40:02;13.1;;;12.0;;
73421;SDS011;61637;47.760;-122.022;2023-02-28T05:42:01;13.8;;;12.6;;
73421;SDS011;61637;47.760;-122.022;2023-02-28T05:44:01;13.3;;;12.2;;
73421;SDS011;61637;47.760;-122.022;2023-02-28T05:46:03;13.2;;;12.0;;
73421;SDS011;61637;47.760;-122.022;2023-02-28T05:48:01;14.8;;;13.6;;
73421;SDS011;61637;47.760;-122.022;2023-02-28T05:50:02;13.1;;;12.0;;
73421;SDS011;61637;47.760;-122.022;2023-02-28T05:52:01;14.2;;;13.0;;
73421;SDS011;61637;47.760;-122.022;2023-02-28T05:54:02;14.2;;;13.0;;
73421;SDS011;61637;47.760;-122.022;2023-02-28T05:56:01;14.0;;;12.8;;
73421;SDS011;61637;47.760;-122.022;2023-02-28T05:58:01;14.6;;;13.4;;
73421;SDS011;61637;47.760;-122.022;2023-02-28T06:00:01;13.7;;;12.6;;
73421;SDS011;61637;47.760;-122.022;2023-02-28T06:02:01;12.5;;;11.5;;
73421;SDS011;61637;47.760;-122.022;2023-02-28T06:04:03;13.4;;;12.3;;
73421;SDS011;61637;47.760;-122.022;2023-02-28T06:06:01;14.0;;;12.9;;
73421;SDS011;61637;47.760;-122.022;2023-02-28T06:08:01;13.9;;;12.8;;
73421;SDS011;61637;47.760;-122.022;2023-02-28T06:10:01;13.5;;;12.4;;
73421;SDS011;61637;47.760;-122.022;2023-02-28T06:12:02;13.1;;;12.0;;
73421;SDS011;61637;47.760;-122.022;2023-02-28T06:14:02;12.8;;;11.6;;
73421;SDS011;61637;47.760;-122.022;2023-02-28T06:16:01;13.7;;;12.6;;
73421;SDS011;61637;47.760;-122.022;2023-02-28T06:18:01;13.3;;;12.2;;
73421;SDS011;61637;47.760;-122.022;2023-02-28T06:20:01;13.5;;;12.4;;
73421;SDS011;61637;47.760;-122.022;2023-02-28T06:22:01;14.1;;;13.0;;
73421;SDS011;61637;47.760;-122.022;2023-02-28T06:24:02;13.4;;;12.3;;
73421;SDS011;61637;47.760;-122.022;2023-02-28T06:26:01;13.8;;;12.7;;
73421;SDS011;61637;47.760;-122.022;2023-02-28T06:28:01;12.9;;;11.8;;
73421;SDS011;61637;47.760;-122.022;2023-02-28T06:30:03;13.5;;;12.4;;
73421;SDS011;61637;47.760;-122.022;2023-02-28T06:32:01;13.1;;;11.9;;
73421;SDS011;61637;47.760;-122.022;2023-02-28T06:34:01;13.2;;;12.1;;
73421;SDS011;61637;47.760;-122.022;2023-02-28T06:36:01;12.9;;;11.8;;
73421;SDS011;61637;47.760;-122.022;2023-02-28T06:38:01;12.1;;;11.1;;
73421;SDS011;61637;47.760;-122.022;2023-02-28T06:40:01;13.9;;;12.8;;
73421;SDS011;61637;47.760;-122.022;2023-02-28T06:42:01;13.5;;;12.4;;
73421;SDS011;61637;47.760;-122.022;2023-02-28T06:44:01;13.4;;;12.3;;
73421;SDS011;61637;47.760;-122.022;2023-02-28T06:46:04;12.0;;;11.0;;
73421;SDS011;61637;47.760;-122.022;2023-02-28T06:48:01;13.3;;;12.1;;
73421;SDS011;61637;47.760;-122.022;2023-02-28T06:50:01;13.5;;;12.4;;
73421;SDS011;61637;47.760;-122.022;2023-02-28T06:52:02;13.7;;;12.6;;
73421;SDS011;61637;47.760;-122.022;2023-02-28T06:54:02;13.5;;;12.3;;
73421;SDS011;61637;47.760;-122.022;2023-02-28T06:56:04;13.8;;;12.6;;
73421;SDS011;61637;47.760;-122.022;2023-02-28T06:58:01;13.9;;;12.8;;
73421;SDS011;61637;47.760;-122.022;2023-02-28T07:00:04;13.6;;;12.4;;
73421;SDS011;61637;47.760;-122.022;2023-02-28T07:02:02;13.6;;;12.4;;
73421;SDS011;61637;47.760;-122.022;2023-02-28T07:04:02;13.2;;;12.1;;
73421;SDS011;61637;47.760;-122.022;2023-02-28T07:06:01;14.0;;;12.8;;
73421;SDS011;61637;47.760;-122.022;2023-02-28T07:08:01;13.2;;;12.1;;
73421;SDS011;61637;47.760;-122.022;2023-02-28T07:10:01;14.0;;;12.9;;
73421;SDS011;61637;47.760;-122.022;2023-02-28T07:12:01;13.7;;;12.5;;
73421;SDS011;61637;47.760;-122.022;2023-02-28T07:14:01;13.6;;;12.5;;
73421;SDS011;61637;47.760;-122.022;2023-02-28T07:16:03;14.9;;;13.7;;
73421;SDS011;61637;47.760;-122.022;2023-02-28T07:18:01;13.5;;;12.4;;
73421;SDS011;61637;47.760;-122.022;2023-02-28T07:20:01;13.7;;;12.6;;
73421;SDS011;61637;47.760;-122.022;2023-02-28T07:22:01;15.6;;;14.3;;
73421;SDS011;61637;47.760;-122.022;2023-02-28T07:24:01;15.7;;;14.3;;
73421;SDS011;61637;47.760;-122.022;2023-02-28T07:26:02;13.1;;;12.0;;
73421;SDS011;61637;47.760;-122.022;2023-02-28T07:28:01;14.0;;;12.8;;
73421;SDS011;61637;47.760;-122.022;2023-02-28T07:30:01;13.5;;;12.4;;
73421;SDS011;61637;47.760;-122.022;2023-02-28T07:32:01;13.3;;;12.2;;
73421;SDS011;61637;47.760;-122.022;2023-02-28T07:34:01;14.2;;;13.1;;
73421;SDS011;61637;47.760;-122.022;2023-02-28T07:36:01;12.9;;;11.8;;
73421;SDS011;61637;47.760;-122.022;2023-02-28T07:38:02;14.4;;;13.2;;
73421;SDS011;61637;47.760;-122.022;2023-02-28T07:40:01;13.8;;;12.6;;
73421;SDS011;61637;47.760;-122.022;2023-02-28T07:42:04;13.4;;;12.2;;
73421;SDS011;61637;47.760;-122.022;2023-02-28T07:44:01;14.2;;;13.0;;
73421;SDS011;61637;47.760;-122.022;2023-02-28T07:46:03;13.8;;;12.6;;
73421;SDS011;61637;47.760;-122.022;2023-02-28T07:48:01;14.8;;;13.6;;
73421;SDS011;61637;47.760;-122.022;2023-02-28T07:50:02;14.8;;;13.5;;
73421;SDS011;61637;47.760;-122.022;2023-02-28T07:52:01;13.2;;;12.0;;
73421;SDS011;61637;47.760;-122.022;2023-02-28T07:54:02;14.5;;;13.3;;
73421;SDS011;61637;47.760;-122.022;2023-02-28T07:56:02;14.4;;;13.2;;
73421;SDS011;61637;47.760;-122.022;2023-02-28T07:58:01;14.3;;;13.1;;
73421;SDS011;61637;47.760;-122.022;2023-02-28T08:00:01;14.5;;;13.3;;
73421;SDS011;61637;47.760;-122.022;2023-02-28T08:02:01;15.1;;;13.9;;
73421;SDS011;61637;47.760;-122.022;2023-02-28T08:04:01;15.7;;;14.5;;
73421;SDS011;61637;47.760;-122.022;2023-02-28T08:06:02;15.6;;;14.3;;
73421;SDS011;61637;47.760;-122.022;2023-02-28T08:08:01;14.0;;;12.7;;
73421;SDS011;61637;47.760;-122.022;2023-02-28T08:10:01;14.8;;;13.6;;
73421;SDS011;61637;47.760;-122.022;2023-02-28T08:12:01;13.4;;;12.3;;
73421;SDS011;61637;47.760;-122.022;2023-02-28T08:14:01;13.6;;;12.5;;
73421;SDS011;61637;47.760;-122.022;2023-02-28T08:16:02;13.7;;;12.5;;
73421;SDS011;61637;47.760;-122.022;2023-02-28T08:18:01;14.0;;;12.9;;
73421;SDS011;61637;47.760;-122.022;2023-02-28T08:20:01;15.9;;;14.6;;
73421;SDS011;61637;47.760;-122.022;2023-02-28T08:22:01;14.7;;;13.5;;
73421;SDS011;61637;47.760;-122.022;2023-02-28T08:24:01;15.5;;;14.1;;
73421;SDS011;61637;47.760;-122.022;2023-02-28T08:26:02;14.8;;;13.6;;
73421;SDS011;61637;47.760;-122.022;2023-02-28T08:28:01;15.6;;;14.3;;
73421;SDS011;61637;47.760;-122.022;2023-02-28T08:30:02;14.7;;;13.5;;
73421;SDS011;61637;47.760;-122.022;2023-02-28T08:32:01;14.8;;;13.6;;
73421;SDS011;61637;47.760;-122.022;2023-02-28T08:34:04;15.1;;;13.9;;
73421;SDS011;61637;47.760;-122.022;2023-02-28T08:36:01;15.8;;;14.5;;
73421;SDS011;61637;47.760;-122.022;2023-02-28T08:38:01;16.9;;;15.5;;
73421;SDS011;61637;47.760;-122.022;2023-02-28T08:40:01;15.8;;;14.6;;
73421;SDS011;61637;47.760;-122.022;2023-02-28T08:42:02;15.4;;;14.1;;
73421;SDS011;61637;47.760;-122.022;2023-02-28T08:44:01;14.0;;;12.8;;
73421;SDS011;61637;47.760;-122.022;2023-02-28T08:46:01;15.3;;;14.0;;
73421;SDS011;61637;47.760;-122.022;2023-02-28T08:48:01;14.7;;;13.5;;
73421;SDS011;61637;47.760;-122.022;2023-02-28T08:50:01;15.3;;;14.0;;
73421;SDS011;61637;47.760;-122.022;2023-02-28T08:52:01;14.5;;;13.3;;
73421;SDS011;61637;47.760;-122.022;2023-02-28T08:54:01;15.8;;;14.5;;
73421;SDS011;61637;47.760;-122.022;2023-02-28T08:56:03;17.1;;;15.6;;
73421;SDS011;61637;47.760;-122.022;2023-02-28T08:58:01;15.5;;;14.2;;
73421;SDS011;61637;47.760;-122.022;2023-02-28T09:00:02;14.9;;;13.6;;
73421;SDS011;61637;47.760;-122.022;2023-02-28T09:02:01;14.8;;;13.5;;
73421;SDS011;61637;47.760;-122.022;2023-02-28T09:04:01;15.6;;;14.4;;
73421;SDS011;61637;47.760;-122.022;2023-02-28T09:06:02;15.2;;;14.0;;
73421;SDS011;61637;47.760;-122.022;2023-02-28T09:08:01;15.0;;;13.8;;
73421;SDS011;61637;47.760;-122.022;2023-02-28T09:10:01;16.1;;;14.8;;
73421;SDS011;61637;47.760;-122.022;2023-02-28T09:12:01;15.2;;;13.9;;
73421;SDS011;61637;47.760;-122.022;2023-02-28T09:14:02;16.2;;;14.8;;
73421;SDS011;61637;47.760;-122.022;2023-02-28T09:16:04;16.1;;;14.8;;
73421;SDS011;61637;47.760;-122.022;2023-02-28T09:18:01;15.3;;;14.1;;
73421;SDS011;61637;47.760;-122.022;2023-02-28T09:20:01;15.4;;;14.1;;
73421;SDS011;61637;47.760;-122.022;2023-02-28T09:22:01;15.4;;;14.1;;
73421;SDS011;61637;47.760;-122.022;2023-02-28T09:24:01;17.3;;;15.9;;
73421;SDS011;61637;47.760;-122.022;2023-02-28T09:26:01;16.4;;;15.1;;
73421;SDS011;61637;47.760;-122.022;2023-02-28T09:28:02;16.0;;;14.7;;
73421;SDS011;61637;47.760;-122.022;2023-02-28T09:30:01;16.5;;;15.2;;
73421;SDS011;61637;47.760;-122.022;2023-02-28T09:32:02;15.0;;;13.8;;
73421;SDS011;61637;47.760;-122.022;2023-02-28T09:34:01;16.2;;;14.8;;
73421;SDS011;61637;47.760;-122.022;2023-02-28T09:36:02;15.2;;;13.9;;
73421;SDS011;61637;47.760;-122.022;2023-02-28T09:38:01;14.9;;;13.7;;
73421;SDS011;61637;47.760;-122.022;2023-02-28T09:40:01;15.5;;;14.2;;
73421;SDS011;61637;47.760;-122.022;2023-02-28T09:42:03;14.5;;;13.2;;
73421;SDS011;61637;47.760;-122.022;2023-02-28T09:44:03;14.6;;;13.4;;
73421;SDS011;61637;47.760;-122.022;2023-02-28T09:46:08;15.6;;;14.3;;
73421;SDS011;61637;47.760;-122.022;2023-02-28T09:48:03;15.5;;;14.2;;
73421;SDS011;61637;47.760;-122.022;2023-02-28T09:50:11;14.3;;;13.2;;
73421;SDS011;61637;47.760;-122.022;2023-02-28T09:52:04;15.0;;;13.7;;
73421;SDS011;61637;47.760;-122.022;2023-02-28T09:54:02;16.0;;;14.7;;
73421;SDS011;61637;47.760;-122.022;2023-02-28T09:56:05;15.2;;;13.8;;
73421;SDS011;61637;47.760;-122.022;2023-02-28T09:58:01;16.1;;;14.7;;
73421;SDS011;61637;47.760;-122.022;2023-02-28T10:00:05;15.1;;;13.9;;
73421;SDS011;61637;47.760;-122.022;2023-02-28T10:02:08;14.2;;;13.0;;
73421;SDS011;61637;47.760;-122.022;2023-02-28T10:04:08;14.3;;;13.1;;
73421;SDS011;61637;47.760;-122.022;2023-02-28T10:06:06;14.8;;;13.5;;
73421;SDS011;61637;47.760;-122.022;2023-02-28T10:08:05;14.3;;;13.0;;
73421;SDS011;61637;47.760;-122.022;2023-02-28T10:10:04;15.7;;;14.3;;
73421;SDS011;61637;47.760;-122.022;2023-02-28T10:12:04;16.1;;;14.8;;
73421;SDS011;61637;47.760;-122.022;2023-02-28T10:14:04;15.7;;;14.4;;
73421;SDS011;61637;47.760;-122.022;2023-02-28T10:16:06;13.8;;;12.7;;
73421;SDS011;61637;47.760;-122.022;2023-02-28T10:18:04;15.8;;;14.5;;
73421;SDS011;61637;47.760;-122.022;2023-02-28T10:20:05;14.5;;;13.3;;
73421;SDS011;61637;47.760;-122.022;2023-02-28T10:22:04;14.6;;;13.4;;
73421;SDS011;61637;47.760;-122.022;2023-02-28T10:24:11;15.8;;;14.5;;
73421;SDS011;61637;47.760;-122.022;2023-02-28T10:26:09;14.7;;;13.5;;
73421;SDS011;61637;47.760;-122.022;2023-02-28T10:28:08;15.3;;;14.0;;
73421;SDS011;61637;47.760;-122.022;2023-02-28T10:30:02;14.7;;;13.5;;
73421;SDS011;61637;47.760;-122.022;2023-02-28T10:32:02;14.6;;;13.4;;
73421;SDS011;61637;47.760;-122.022;2023-02-28T10:34:01;14.6;;;13.4;;
73421;SDS011;61637;47.760;-122.022;2023-02-28T10:36:02;16.0;;;14.7;;
73421;SDS011;61637;47.760;-122.022;2023-02-28T10:38:13;16.5;;;15.2;;
73421;SDS011;61637;47.760;-122.022;2023-02-28T10:40:01;14.4;;;13.2;;
73421;SDS011;61637;47.760;-122.022;2023-02-28T10:42:01;14.8;;;13.5;;
73421;SDS011;61637;47.760;-122.022;2023-02-28T10:44:17;15.0;;;13.8;;
73421;SDS011;61637;47.760;-122.022;2023-02-28T10:46:03;15.4;;;14.1;;
73421;SDS011;61637;47.760;-122.022;2023-02-28T10:48:04;15.1;;;13.9;;
73421;SDS011;61637;47.760;-122.022;2023-02-28T10:50:02;14.9;;;13.6;;
73421;SDS011;61637;47.760;-122.022;2023-02-28T10:52:01;14.7;;;13.5;;
73421;SDS011;61637;47.760;-122.022;2023-02-28T10:54:03;15.3;;;14.0;;
73421;SDS011;61637;47.760;-122.022;2023-02-28T10:56:03;15.2;;;14.0;;
73421;SDS011;61637;47.760;-122.022;2023-02-28T10:58:01;15.7;;;14.4;;
73421;SDS011;61637;47.760;-122.022;2023-02-28T11:00:13;16.1;;;14.7;;
73421;SDS011;61637;47.760;-122.022;2023-02-28T11:02:01;15.7;;;14.4;;
73421;SDS011;61637;47.760;-122.022;2023-02-28T11:04:01;16.0;;;14.7;;
73421;SDS011;61637;47.760;-122.022;2023-02-28T11:06:06;16.1;;;14.8;;
73421;SDS011;61637;47.760;-122.022;2023-02-28T11:08:06;15.5;;;14.1;;
73421;SDS011;61637;47.760;-122.022;2023-02-28T11:10:01;15.4;;;14.2;;
73421;SDS011;61637;47.760;-122.022;2023-02-28T11:12:03;17.1;;;15.8;;
73421;SDS011;61637;47.760;-122.022;2023-02-28T11:14:04;15.8;;;14.5;;
73421;SDS011;61637;47.760;-122.022;2023-02-28T11:16:04;14.3;;;13.1;;
73421;SDS011;61637;47.760;-122.022;2023-02-28T11:18:24;16.3;;;14.9;;
73421;SDS011;61637;47.760;-122.022;2023-02-28T11:20:04;16.4;;;15.0;;
73421;SDS011;61637;47.760;-122.022;2023-02-28T11:22:03;16.4;;;15.0;;
73421;SDS011;61637;47.760;-122.022;2023-02-28T11:24:05;15.4;;;14.1;;
73421;SDS011;61637;47.760;-122.022;2023-02-28T11:26:04;15.6;;;14.3;;
73421;SDS011;61637;47.760;-122.022;2023-02-28T11:28:02;15.7;;;14.4;;
73421;SDS011;61637;47.760;-122.022;2023-02-28T11:30:01;15.7;;;14.4;;
73421;SDS011;61637;47.760;-122.022;2023-02-28T11:32:05;14.7;;;13.2;;
73421;SDS011;61637;47.760;-122.022;2023-02-28T11:34:01;14.8;;;13.4;;
73421;SDS011;61637;47.760;-122.022;2023-02-28T11:36:08;16.7;;;15.3;;
73421;SDS011;61637;47.760;-122.022;2023-02-28T11:38:02;15.8;;;14.5;;
73421;SDS011;61637;47.760;-122.022;2023-02-28T11:40:02;14.9;;;13.6;;
73421;SDS011;61637;47.760;-122.022;2023-02-28T11:42:11;15.8;;;14.5;;